Flight Track Log - Related Links

Times and Time Zones

All times are in EDT time to prevent confusion due to time zone crossing. See the CSH9377 flight status page for this flight to view local times or setup timezone preferences in your user account.

Time Position Orientation Groundspeed Altitude Reporting Facility
EDT Latitude Longitude Course Direction KTS MPH feet Rate Location/Type
Tue 07:17:00 AM 31.6883 121.7762 359° North  Level Estimated
Tue 07:18:00 AM 31.7792 121.7734 359° North  Level Estimated
Tue 07:19:00 AM 31.8701 121.7707 359° North  Level Estimated
Tue 07:20:00 AM 31.9611 121.7680 359° North  Level Estimated
Tue 07:21:00 AM 32.0520 121.7652 359° North  Level Estimated
Tue 07:22:00 AM 32.1429 121.7625 359° North  Level Estimated
Tue 07:23:00 AM 32.2338 121.7597 359° North  Level Estimated
Tue 07:24:00 AM 32.3247 121.7570 359° North  Level Estimated
Tue 07:25:00 AM 32.4157 121.7542 359° North  Level Estimated
Tue 07:26:00 AM 32.5066 121.7515 359° North  Level Estimated
Tue 07:27:00 AM 32.5975 121.7487 359° North  Level Estimated
Tue 07:28:00 AM 32.6884 121.7459 359° North  Level Estimated
Tue 07:29:00 AM 32.7793 121.7431 359° North  Level Estimated
Tue 07:30:00 AM 32.8703 121.7403 359° North  Level Estimated
Tue 07:31:00 AM 32.9612 121.7375 359° North  Level Estimated
Tue 07:32:00 AM 33.0521 121.7347 359° North  Level Estimated
Tue 07:33:00 AM 33.1430 121.7319 359° North  Level Estimated
Tue 07:34:00 AM 33.2339 121.7291 359° North  Level Estimated
Tue 07:35:00 AM 33.3249 121.7263 359° North  Level Estimated
Tue 07:36:00 AM 33.4158 121.7235 359° North  Level Estimated
Tue 07:37:00 AM 33.5067 121.7207 359° North  Level Estimated
Tue 07:38:00 AM 33.5976 121.7178 359° North  Level Estimated
Tue 07:39:00 AM 33.6885 121.7150 359° North  Level Estimated
Tue 07:40:00 AM 33.7794 121.7121 359° North  Level Estimated
Tue 07:41:00 AM 33.8704 121.7093 359° North  Level Estimated
Tue 07:42:00 AM 33.9613 121.7064 359° North  Level Estimated
Tue 07:43:00 AM 34.0522 121.7036 359° North  Level Estimated
Tue 07:44:00 AM 34.1431 121.7007 359° North  Level Estimated
Tue 07:45:00 AM 34.2340 121.6978 359° North  Level Estimated
Tue 07:46:00 AM 34.3250 121.6949 358° North  Level Estimated
Tue 07:47:00 AM 34.4159 121.6920 358° North  Level Estimated
Tue 07:48:00 AM 34.5068 121.6891 358° North  Level Estimated
Tue 07:49:00 AM 34.5977 121.6862 358° North  Level Estimated
Tue 07:50:00 AM 34.6886 121.6833 358° North  Level Estimated
Tue 07:51:00 AM 34.7795 121.6804 358° North  Level Estimated
Tue 07:52:00 AM 34.8705 121.6775 358° North  Level Estimated
Tue 07:53:00 AM 34.9614 121.6746 358° North  Level Estimated
Tue 07:54:00 AM 35.0523 121.6716 358° North  Level Estimated
Tue 07:55:00 AM 35.1432 121.6687 358° North  Level Estimated
Tue 07:56:00 AM 35.2341 121.6657 358° North  Level Estimated
Tue 07:57:00 AM 35.3250 121.6628 358° North  Level Estimated
Tue 07:58:00 AM 35.4160 121.6598 358° North  Level Estimated
Tue 07:59:00 AM 35.5069 121.6569 358° North  Level Estimated
Tue 08:00:00 AM 35.5978 121.6539 358° North  Level Estimated
Tue 08:01:00 AM 35.6887 121.6509 358° North  Level Estimated
Tue 08:02:00 AM 35.7796 121.6479 358° North  Level Estimated
Tue 08:03:00 AM 35.8705 121.6449 358° North  Level Estimated
Tue 08:04:00 AM 35.9615 121.6419 358° North  Level Estimated
Tue 08:05:00 AM 36.0524 121.6389 358° North  Level Estimated
Tue 08:06:00 AM 36.1433 121.6359 358° North  Level Estimated
Tue 08:07:00 AM 36.2342 121.6329 358° North  Level Estimated
Tue 08:08:00 AM 36.3251 121.6299 358° North  Level Estimated
Tue 08:09:00 AM 36.4160 121.6268 358° North  Level Estimated
Tue 08:10:00 AM 36.5070 121.6238 358° North  Level Estimated
Tue 08:11:00 AM 36.5979 121.6207 358° North  Level Estimated
Tue 08:12:00 AM 36.6888 121.6177 358° North  Level Estimated
Tue 08:13:00 AM 36.7797 121.6146 358° North  Level Estimated
Tue 08:14:00 AM 36.8706 121.6115 358° North  Level Estimated
Tue 08:15:00 AM 36.9615 121.6084 358° North  Level Estimated
Tue 08:16:00 AM 37.0524 121.6053 358° North  Level Estimated
Tue 08:17:00 AM 37.1434 121.6023 358° North  Level Estimated
Tue 08:18:00 AM 37.2343 121.5992 358° North  Level Estimated
Tue 08:19:00 AM 37.3252 121.5960 358° North  Level Estimated
Tue 08:20:00 AM 37.4161 121.5929 358° North  Level Estimated
Tue 08:21:00 AM 37.5070 121.5898 358° North  Level Estimated
Tue 08:22:00 AM 37.5979 121.5867 358° North  Level Estimated
Tue 08:23:00 AM 37.6889 121.5835 358° North  Level Estimated
Tue 08:24:00 AM 37.7798 121.5804 358° North  Level Estimated
Tue 08:25:00 AM 37.8707 121.5772 358° North  Level Estimated
Tue 08:26:00 AM 37.9616 121.5741 358° North  Level Estimated
Tue 08:27:00 AM 38.0525 121.5709 358° North  Level Estimated
Tue 08:28:00 AM 38.1434 121.5677 358° North  Level Estimated
Tue 08:29:00 AM 38.2343 121.5645 358° North  Level Estimated
Tue 08:30:00 AM 38.3253 121.5613 358° North  Level Estimated
Tue 08:31:00 AM 38.4162 121.5581 358° North  Level Estimated

Login

Don't have an account? Register now (free) for customized features, flight alerts, and more!